Time;durP1;ratioP1;P1;durP2;ratioP2;P2;SDS_P1;SDS_P2;PMS_P1;PMS_P2;Temp;Humidity;BMP_temperature;BMP_pressure;BME280_temperature;BME280_humidity;BME280_pressure;Samples;Min_cycle;Max_cycle;Signal;HPM_P1;HPM_P2
2024/01/22 00:00:27;;;;;;;;;;;-0.40;99.90;;;;;;5025958;28;19993;-69
2024/01/22 00:02:54;;;;;;;;;;;-0.40;99.90;;;;;;5025538;28;19984;-68
2024/01/22 00:05:21;;;;;;;;;;;-0.40;99.90;;;;;;5027114;28;19968;-68
2024/01/22 00:07:48;;;;;;;;;;;-0.40;99.90;;;;;;5025515;28;20302;-69
2024/01/22 00:10:15;;;;;;;;;;;-0.40;99.90;;;;;;5026590;28;19992;-68
2024/01/22 00:12:42;;;;;;;;;;;-0.50;99.90;;;;;;5028053;28;19948;-69
2024/01/22 00:15:09;;;;;;;;;;;-0.50;99.90;;;;;;5041364;28;20210;-69
2024/01/22 00:17:35;;;;;;;;;;;-0.50;99.90;;;;;;5041547;28;20007;-70
2024/01/22 00:20:03;;;;;;;;;;;-0.50;99.90;;;;;;5041721;28;19921;-69
2024/01/22 00:22:29;;;;;;;;;;;-0.40;99.90;;;;;;5033242;28;19921;-68
2024/01/22 00:24:57;;;;;;;;;;;-0.40;99.90;;;;;;5030106;28;19929;-68
2024/01/22 00:27:24;;;;;;;;;;;-0.40;99.90;;;;;;5041011;28;20179;-69
2024/01/22 00:29:51;;;;;;;;;;;-0.40;99.90;;;;;;5031017;28;19922;-68
2024/01/22 00:32:17;;;;;;;;;;;-0.40;99.90;;;;;;5032076;28;19963;-69
2024/01/22 00:34:44;;;;;;;;;;;-0.40;99.90;;;;;;5028237;28;20170;-68
2024/01/22 00:37:11;;;;;;;;;;;-0.40;99.90;;;;;;5041606;28;19988;-69
2024/01/22 00:39:37;;;;;;;;;;;-0.40;99.90;;;;;;5041584;28;19991;-69
2024/01/22 00:42:05;;;;;;;;;;;-0.40;99.90;;;;;;5041613;28;19987;-68
2024/01/22 00:44:32;;;;;;;;;;;-0.50;99.90;;;;;;5040100;28;19997;-68
2024/01/22 00:46:59;;;;;;;;;;;-0.40;99.90;;;;;;5041619;28;19929;-68
2024/01/22 00:49:25;;;;;;;;;;;-0.40;99.90;;;;;;5025275;28;19989;-68
2024/01/22 00:51:52;;;;;;;;;;;-0.40;99.90;;;;;;5025398;28;20164;-69
2024/01/22 00:54:19;;;;;;;;;;;-0.50;99.90;;;;;;5025177;28;19992;-69
2024/01/22 00:56:45;;;;;;;;;;;-0.50;99.90;;;;;;5041399;28;20203;-67
2024/01/22 00:59:13;;;;;;;;;;;-0.50;99.90;;;;;;5040786;28;19921;-68
2024/01/22 01:01:40;;;;;;;;;;;-0.50;99.90;;;;;;5034467;28;19972;-69
2024/01/22 01:04:07;;;;;;;;;;;-0.50;99.90;;;;;;5041154;28;20202;-68
2024/01/22 01:06:33;;;;;;;;;;;-0.40;99.90;;;;;;5025756;28;19933;-68
2024/01/22 01:09:00;;;;;;;;;;;-0.40;99.90;;;;;;5024694;28;20266;-68
2024/01/22 01:11:26;;;;;;;;;;;-0.40;99.90;;;;;;5032469;28;19921;-70
2024/01/22 01:13:53;;;;;;;;;;;-0.40;99.90;;;;;;5041322;28;20122;-70
2024/01/22 01:16:21;;;;;;;;;;;-0.40;99.90;;;;;;5039927;28;19928;-68
2024/01/22 01:18:48;;;;;;;;;;;-0.40;99.90;;;;;;5041376;28;19968;-68
2024/01/22 01:21:14;;;;;;;;;;;-0.50;99.90;;;;;;5040323;28;19927;-69
2024/01/22 01:23:41;;;;;;;;;;;-0.50;99.90;;;;;;5041349;28;19920;-69
2024/01/22 01:26:08;;;;;;;;;;;-0.60;99.90;;;;;;5026983;28;19976;-69
2024/01/22 01:28:34;;;;;;;;;;;-0.50;99.90;;;;;;5025085;28;19965;-68
2024/01/22 01:31:01;;;;;;;;;;;-0.50;99.90;;;;;;5024822;28;19921;-68
2024/01/22 01:33:29;;;;;;;;;;;-0.50;99.90;;;;;;5025513;28;19929;-69
2024/01/22 01:35:55;;;;;;;;;;;-0.60;99.90;;;;;;5035525;28;20257;-68
2024/01/22 01:38:22;;;;;;;;;;;-0.50;99.90;;;;;;5040301;28;19984;-69
2024/01/22 01:40:48;;;;;;;;;;;-0.50;99.90;;;;;;5041375;28;20013;-69
2024/01/22 01:43:15;;;;;;;;;;;-0.60;99.90;;;;;;5033614;28;19929;-68
2024/01/22 01:45:42;;;;;;;;;;;-0.50;99.90;;;;;;5023374;28;19956;-69
2024/01/22 01:48:08;;;;;;;;;;;-0.50;99.90;;;;;;5024673;28;19922;-70
2024/01/22 01:50:36;;;;;;;;;;;-0.50;99.90;;;;;;5024891;28;19922;-68
2024/01/22 01:53:04;;;;;;;;;;;-0.50;99.90;;;;;;5024691;28;19980;-68
2024/01/22 01:55:31;;;;;;;;;;;-0.50;99.90;;;;;;5032711;28;19984;-71
2024/01/22 01:57:58;;;;;;;;;;;-0.60;99.90;;;;;;5041227;28;19957;-70
2024/01/22 02:00:25;;;;;;;;;;;-0.60;99.90;;;;;;5041422;28;19965;-71
2024/01/22 02:02:52;;;;;;;;;;;-0.60;99.90;;;;;;5033799;28;20187;-70
2024/01/22 02:05:18;;;;;;;;;;;-0.60;99.90;;;;;;5041427;28;19984;-70
2024/01/22 02:07:46;;;;;;;;;;;-0.60;99.90;;;;;;5044474;28;19921;-72
2024/01/22 02:10:13;;;;;;;;;;;-0.60;99.90;;;;;;5037052;28;20147;-69
2024/01/22 02:12:40;;;;;;;;;;;-0.60;99.90;;;;;;5044617;28;19921;-69
2024/01/22 02:15:07;;;;;;;;;;;-0.60;99.90;;;;;;5030228;28;19943;-69
2024/01/22 02:17:33;;;;;;;;;;;-0.70;99.90;;;;;;5043156;28;20003;-69
2024/01/22 02:20:00;;;;;;;;;;;-0.70;99.90;;;;;;5044317;28;20001;-68
2024/01/22 02:22:27;;;;;;;;;;;-0.70;99.90;;;;;;5043560;28;19921;-68
2024/01/22 02:24:55;;;;;;;;;;;-0.70;99.90;;;;;;5032869;28;19928;-69
2024/01/22 02:27:21;;;;;;;;;;;-0.80;99.90;;;;;;5028594;28;19964;-69
2024/01/22 02:29:48;;;;;;;;;;;-0.80;99.90;;;;;;5044205;28;19953;-70
2024/01/22 02:32:14;;;;;;;;;;;-0.80;99.90;;;;;;5043117;28;19928;-69
2024/01/22 02:34:41;;;;;;;;;;;-0.80;99.90;;;;;;5043632;28;19956;-69
2024/01/22 02:37:08;;;;;;;;;;;-0.90;99.90;;;;;;5028384;28;20008;-69
2024/01/22 02:39:35;;;;;;;;;;;-0.90;99.90;;;;;;5022888;28;19939;-68
2024/01/22 02:42:04;;;;;;;;;;;-0.90;99.90;;;;;;5027311;28;19925;-70
2024/01/22 02:44:32;;;;;;;;;;;-0.90;99.90;;;;;;5025929;28;19921;-70
2024/01/22 02:46:58;;;;;;;;;;;-0.90;99.90;;;;;;5025157;28;19922;-68
2024/01/22 02:49:25;;;;;;;;;;;-0.90;99.90;;;;;;5028173;28;19985;-70
2024/01/22 02:51:52;;;;;;;;;;;-1.00;99.90;;;;;;5027441;28;19928;-69
2024/01/22 02:54:18;;;;;;;;;;;-1.00;99.90;;;;;;5027315;28;20242;-69
2024/01/22 02:56:45;;;;;;;;;;;-1.00;99.90;;;;;;5027056;28;19922;-68
2024/01/22 02:59:13;;;;;;;;;;;-1.00;99.90;;;;;;5027660;28;19921;-69
2024/01/22 03:01:39;;;;;;;;;;;-1.00;99.90;;;;;;5043702;28;20122;-69
2024/01/22 03:04:06;;;;;;;;;;;-1.00;99.90;;;;;;5036209;28;19997;-68
2024/01/22 03:06:33;;;;;;;;;;;-1.10;99.90;;;;;;5030647;28;19996;-69
2024/01/22 03:08:59;;;;;;;;;;;-1.10;99.90;;;;;;5022322;28;19928;-69
2024/01/22 03:11:26;;;;;;;;;;;-1.10;99.90;;;;;;5028772;28;19989;-69
2024/01/22 03:13:52;;;;;;;;;;;-1.10;99.90;;;;;;5043175;28;19996;-69
2024/01/22 03:16:20;;;;;;;;;;;-1.00;99.90;;;;;;5035350;28;19922;-69
2024/01/22 03:18:47;;;;;;;;;;;-1.00;99.90;;;;;;5037527;28;20011;-69
2024/01/22 03:21:14;;;;;;;;;;;-1.00;99.90;;;;;;5042478;28;20190;-70
2024/01/22 03:23:43;;;;;;;;;;;-1.10;99.90;;;;;;5043359;28;19980;-69
2024/01/22 03:26:09;;;;;;;;;;;-1.10;99.90;;;;;;5042492;28;19921;-70
2024/01/22 03:28:36;;;;;;;;;;;-1.10;99.90;;;;;;5042658;28;19980;-70
2024/01/22 03:31:03;;;;;;;;;;;-1.10;99.90;;;;;;5043280;28;20183;-67
2024/01/22 03:33:31;;;;;;;;;;;-1.20;99.90;;;;;;5041937;28;20234;-69
2024/01/22 03:35:58;;;;;;;;;;;-1.10;99.90;;;;;;5036305;28;19922;-69
2024/01/22 03:38:24;;;;;;;;;;;-1.10;99.90;;;;;;5026224;28;20112;-69
2024/01/22 03:40:51;;;;;;;;;;;-1.00;99.90;;;;;;5026370;28;19921;-69
2024/01/22 03:43:18;;;;;;;;;;;-1.00;99.90;;;;;;5025990;28;19953;-71
2024/01/22 03:45:44;;;;;;;;;;;-1.00;99.90;;;;;;5021727;28;19922;-69
2024/01/22 03:48:11;;;;;;;;;;;-1.00;99.90;;;;;;5039420;28;19953;-68
2024/01/22 03:50:39;;;;;;;;;;;-0.90;99.90;;;;;;5042299;28;20262;-71
2024/01/22 03:53:05;;;;;;;;;;;-0.80;99.90;;;;;;5042654;28;20179;-71
2024/01/22 03:55:32;;;;;;;;;;;-0.80;99.90;;;;;;5041315;28;19927;-69
2024/01/22 03:57:59;;;;;;;;;;;-0.70;99.90;;;;;;5042753;28;19921;-69
2024/01/22 04:00:25;;;;;;;;;;;-0.70;99.90;;;;;;5041344;28;20229;-72
2024/01/22 04:02:52;;;;;;;;;;;-0.70;99.90;;;;;;5038073;28;19984;-69
2024/01/22 04:05:19;;;;;;;;;;;-0.60;99.90;;;;;;5032447;28;20214;-70
2024/01/22 04:07:47;;;;;;;;;;;-0.50;99.90;;;;;;5042620;28;19960;-70
2024/01/22 04:10:13;;;;;;;;;;;-0.50;99.90;;;;;;5041080;28;19952;-69
2024/01/22 04:12:40;;;;;;;;;;;-0.40;99.90;;;;;;5024048;28;19921;-68
2024/01/22 04:15:07;;;;;;;;;;;-0.40;99.90;;;;;;5025432;28;20207;-69
2024/01/22 04:17:33;;;;;;;;;;;-0.40;99.90;;;;;;5041399;28;19965;-69
2024/01/22 04:20:00;;;;;;;;;;;-0.40;99.90;;;;;;5041850;28;19952;-68
2024/01/22 04:22:27;;;;;;;;;;;-0.40;99.90;;;;;;5041269;28;19963;-70
2024/01/22 04:24:55;;;;;;;;;;;-0.30;99.90;;;;;;5041423;28;19928;-70
2024/01/22 04:27:21;;;;;;;;;;;-0.40;99.90;;;;;;5041288;28;19992;-68
2024/01/22 04:29:48;;;;;;;;;;;-0.30;99.90;;;;;;5042079;28;19921;-69
2024/01/22 04:32:14;;;;;;;;;;;-0.20;99.90;;;;;;5041162;28;19921;-69
2024/01/22 04:34:43;;;;;;;;;;;-0.20;99.90;;;;;;5038152;28;19921;-69
2024/01/22 04:37:09;;;;;;;;;;;-0.20;99.90;;;;;;5025573;28;19921;-69
2024/01/22 04:39:36;;;;;;;;;;;-0.20;99.90;;;;;;5025685;28;19985;-70
2024/01/22 04:42:04;;;;;;;;;;;-0.10;99.90;;;;;;5025315;28;19988;-71
2024/01/22 04:44:31;;;;;;;;;;;0.00;99.90;;;;;;5025824;28;19928;-68
2024/01/22 04:46:58;;;;;;;;;;;0.10;99.90;;;;;;5041992;28;19959;-69
2024/01/22 04:49:24;;;;;;;;;;;0.10;99.90;;;;;;5040811;28;19921;-69
2024/01/22 04:51:51;;;;;;;;;;;0.20;99.90;;;;;;5041868;28;19956;-69
2024/01/22 04:54:18;;;;;;;;;;;0.30;99.90;;;;;;5039647;28;19921;-70
2024/01/22 04:56:45;;;;;;;;;;;0.40;99.90;;;;;;5041510;28;19976;-70
2024/01/22 04:59:13;;;;;;;;;;;0.40;99.90;;;;;;5040938;28;19956;-69
2024/01/22 05:01:40;;;;;;;;;;;0.40;99.90;;;;;;5023143;28;19992;-70
2024/01/22 05:04:07;;;;;;;;;;;0.50;99.90;;;;;;5024959;28;19921;-69
2024/01/22 05:06:33;;;;;;;;;;;0.50;99.90;;;;;;5040226;28;19945;-69
2024/01/22 05:09:00;;;;;;;;;;;0.50;99.90;;;;;;5030239;28;20161;-69
2024/01/22 05:11:27;;;;;;;;;;;0.50;99.90;;;;;;5038191;28;19921;-70
2024/01/22 05:13:54;;;;;;;;;;;0.50;99.90;;;;;;5041139;28;20233;-68
2024/01/22 05:16:23;;;;;;;;;;;0.50;99.90;;;;;;5040059;28;20242;-71
2024/01/22 05:18:51;;;;;;;;;;;0.60;99.90;;;;;;5036085;28;19928;-69
2024/01/22 05:21:17;;;;;;;;;;;0.60;99.90;;;;;;5025772;28;19921;-69
2024/01/22 05:23:44;;;;;;;;;;;0.60;99.90;;;;;;5027917;28;20207;-70
2024/01/22 05:26:11;;;;;;;;;;;0.60;99.90;;;;;;5040987;28;20126;-68
2024/01/22 05:28:37;;;;;;;;;;;0.50;99.90;;;;;;5024583;28;20286;-69
2024/01/22 05:31:05;;;;;;;;;;;0.70;99.90;;;;;;5024945;28;19921;-70
2024/01/22 05:33:33;;;;;;;;;;;0.70;99.90;;;;;;5025688;28;19928;-70
2024/01/22 05:36:00;;;;;;;;;;;0.70;99.90;;;;;;5024856;28;19996;-69
2024/01/22 05:38:26;;;;;;;;;;;0.70;99.90;;;;;;5029101;28;19980;-70
2024/01/22 05:40:53;;;;;;;;;;;0.70;99.90;;;;;;5028721;28;19984;-68
2024/01/22 05:43:20;;;;;;;;;;;0.80;99.90;;;;;;5019335;28;19960;-68
2024/01/22 05:45:46;;;;;;;;;;;0.80;99.90;;;;;;4995625;28;19922;-68
2024/01/22 05:48:13;;;;;;;;;;;0.80;99.90;;;;;;4999678;28;19925;-67
2024/01/22 05:50:41;;;;;;;;;;;0.80;99.90;;;;;;4997764;28;20202;-69
2024/01/22 05:53:08;;;;;;;;;;;0.80;99.90;;;;;;4995376;28;20227;-69
2024/01/22 05:55:35;;;;;;;;;;;0.80;99.90;;;;;;4997042;28;19929;-68
2024/01/22 05:58:02;;;;;;;;;;;0.80;99.90;;;;;;5003658;28;19990;-68
2024/01/22 06:00:29;;;;;;;;;;;0.80;99.90;;;;;;5020355;28;19956;-69
2024/01/22 06:02:55;;;;;;;;;;;0.80;99.90;;;;;;5029873;28;19921;-68
2024/01/22 06:05:22;;;;;;;;;;;0.90;99.90;;;;;;5030717;28;19989;-68
2024/01/22 06:07:50;;;;;;;;;;;0.90;99.90;;;;;;4994719;28;20266;-67
2024/01/22 06:10:17;;;;;;;;;;;0.90;99.90;;;;;;4996916;28;20227;-69
2024/01/22 06:12:44;;;;;;;;;;;0.90;99.90;;;;;;4997128;28;19949;-68
2024/01/22 06:15:10;;;;;;;;;;;0.90;99.90;;;;;;4997504;28;19933;-67
2024/01/22 06:17:37;;;;;;;;;;;0.90;99.90;;;;;;4994490;28;19922;-68
2024/01/22 06:20:05;;;;;;;;;;;0.90;99.90;;;;;;4996304;28;21572;-68
2024/01/22 06:22:33;;;;;;;;;;;0.90;99.90;;;;;;5016250;28;19989;-71
2024/01/22 06:25:03;;;;;;;;;;;0.90;99.90;;;;;;5024804;28;19921;-69
2024/01/22 06:27:30;;;;;;;;;;;1.00;99.90;;;;;;5037258;28;19928;-70
2024/01/22 06:29:59;;;;;;;;;;;1.00;99.90;;;;;;5020182;28;19921;-69
2024/01/22 06:32:26;;;;;;;;;;;1.00;99.90;;;;;;5035218;28;19921;-71
2024/01/22 06:34:52;;;;;;;;;;;1.00;99.90;;;;;;5024735;28;19976;-70
2024/01/22 06:37:19;;;;;;;;;;;1.00;99.90;;;;;;5041533;28;19953;-71
2024/01/22 06:39:46;;;;;;;;;;;1.00;99.90;;;;;;5044046;28;19928;-71
2024/01/22 06:42:14;;;;;;;;;;;1.00;99.90;;;;;;5030185;28;19922;-71
2024/01/22 06:44:40;;;;;;;;;;;1.00;99.90;;;;;;5043425;28;20208;-70
2024/01/22 06:47:07;;;;;;;;;;;1.00;99.90;;;;;;5035566;28;19956;-69
2024/01/22 06:49:34;;;;;;;;;;;1.00;99.90;;;;;;5028076;28;19937;-69
2024/01/22 06:52:00;;;;;;;;;;;1.10;99.90;;;;;;5027405;28;19921;-71
2024/01/22 06:54:27;;;;;;;;;;;1.10;99.90;;;;;;5027476;28;19922;-68
2024/01/22 06:56:53;;;;;;;;;;;1.10;99.90;;;;;;5026942;28;20254;-69
2024/01/22 06:59:21;;;;;;;;;;;1.10;99.90;;;;;;5027731;28;19921;-69
2024/01/22 07:01:48;;;;;;;;;;;1.10;99.90;;;;;;5027150;28;19952;-69
2024/01/22 07:04:15;;;;;;;;;;;1.10;99.90;;;;;;5026930;28;20287;-70
2024/01/22 07:06:41;;;;;;;;;;;1.30;99.90;;;;;;5027159;28;19993;-69
2024/01/22 07:09:09;;;;;;;;;;;1.40;99.90;;;;;;5026844;28;19980;-69
2024/01/22 07:11:37;;;;;;;;;;;1.50;99.90;;;;;;5027427;28;20150;-69
2024/01/22 07:14:04;;;;;;;;;;;1.70;99.90;;;;;;5026917;28;19928;-69
2024/01/22 07:16:32;;;;;;;;;;;1.80;99.90;;;;;;5027265;28;19984;-69
2024/01/22 07:18:59;;;;;;;;;;;2.00;99.90;;;;;;5026763;28;19944;-68
2024/01/22 07:21:26;;;;;;;;;;;2.10;99.90;;;;;;5027466;28;19988;-69
2024/01/22 07:23:52;;;;;;;;;;;2.30;99.90;;;;;;5026712;28;19932;-69
2024/01/22 07:26:19;;;;;;;;;;;2.40;99.90;;;;;;5026554;28;20263;-70
2024/01/22 07:28:46;;;;;;;;;;;2.50;99.90;;;;;;5024835;28;19921;-69
2024/01/22 07:31:13;;;;;;;;;;;2.60;99.90;;;;;;5026978;28;19984;-69
2024/01/22 07:33:41;;;;;;;;;;;2.70;99.90;;;;;;5032355;28;19984;-69
2024/01/22 07:36:07;;;;;;;;;;;2.70;99.90;;;;;;5039228;28;19959;-68
2024/01/22 07:38:34;;;;;;;;;;;2.80;99.90;;;;;;5041303;28;19929;-71
2024/01/22 07:41:01;;;;;;;;;;;2.80;99.90;;;;;;5042824;28;19957;-68
2024/01/22 07:43:27;;;;;;;;;;;2.90;99.90;;;;;;5042160;28;19960;-70
2024/01/22 07:45:54;;;;;;;;;;;2.90;99.90;;;;;;5042581;28;19980;-68
2024/01/22 07:48:22;;;;;;;;;;;3.00;99.90;;;;;;5041970;28;19921;-69
2024/01/22 07:50:50;;;;;;;;;;;3.10;99.90;;;;;;5042941;28;19978;-69
2024/01/22 07:53:17;;;;;;;;;;;3.10;99.90;;;;;;5041892;28;19960;-69
2024/01/22 07:55:44;;;;;;;;;;;3.20;99.90;;;;;;5041880;28;19963;-68
2024/01/22 07:58:14;;;;;;;;;;;3.30;99.90;;;;;;5041994;28;19928;-70
2024/01/22 08:00:40;;;;;;;;;;;3.40;99.90;;;;;;5018696;28;19993;-68
2024/01/22 08:03:07;;;;;;;;;;;3.40;99.90;;;;;;5038729;28;19921;-68
2024/01/22 08:05:33;;;;;;;;;;;3.50;99.90;;;;;;5040552;28;19984;-70
2024/01/22 08:08:01;;;;;;;;;;;3.50;99.90;;;;;;5042546;28;20143;-68
2024/01/22 08:10:28;;;;;;;;;;;3.50;99.90;;;;;;5041605;28;19989;-70
2024/01/22 08:12:55;;;;;;;;;;;3.50;99.90;;;;;;5042555;28;19964;-69
2024/01/22 08:15:22;;;;;;;;;;;3.50;99.90;;;;;;5041103;28;19921;-68
2024/01/22 08:17:48;;;;;;;;;;;3.60;99.90;;;;;;5042494;28;19921;-70
2024/01/22 08:20:16;;;;;;;;;;;3.60;99.90;;;;;;5041127;28;19927;-68
2024/01/22 08:22:43;;;;;;;;;;;3.60;99.90;;;;;;5042104;28;19921;-69
2024/01/22 08:25:17;;;;;;;;;;;3.70;99.90;;;;;;5041286;28;19921;-69
2024/01/22 08:27:44;;;;;;;;;;;3.70;99.90;;;;;;5019036;28;19921;-70
2024/01/22 08:30:11;;;;;;;;;;;3.80;99.90;;;;;;5025841;28;19921;-68
2024/01/22 08:32:38;;;;;;;;;;;3.80;99.90;;;;;;5025573;28;19953;-69
2024/01/22 08:35:05;;;;;;;;;;;3.90;99.90;;;;;;5024989;28;19981;-68
2024/01/22 08:37:33;;;;;;;;;;;3.90;99.90;;;;;;5026198;28;19957;-68
2024/01/22 08:40:03;;;;;;;;;;;4.00;99.90;;;;;;5025104;28;20119;-68
2024/01/22 08:42:31;;;;;;;;;;;4.00;99.90;;;;;;5041159;28;19921;-69
2024/01/22 08:44:58;;;;;;;;;;;4.00;99.90;;;;;;5041076;28;19921;-69
2024/01/22 08:47:24;;;;;;;;;;;4.10;99.90;;;;;;5023257;28;19960;-70
2024/01/22 08:49:51;;;;;;;;;;;4.10;99.90;;;;;;5028431;28;19963;-69
2024/01/22 08:52:18;;;;;;;;;;;4.10;99.90;;;;;;5028520;28;20016;-69
2024/01/22 08:54:44;;;;;;;;;;;4.10;99.90;;;;;;5026726;28;19989;-71
2024/01/22 08:57:11;;;;;;;;;;;4.20;99.90;;;;;;5027792;28;19980;-71
2024/01/22 08:59:39;;;;;;;;;;;4.20;99.90;;;;;;5026102;28;20151;-69
2024/01/22 09:02:05;;;;;;;;;;;4.20;99.90;;;;;;5027695;28;20160;-69
2024/01/22 09:04:32;;;;;;;;;;;4.20;99.90;;;;;;5023471;28;19980;-70
2024/01/22 09:06:58;;;;;;;;;;;4.20;99.90;;;;;;5027648;28;20178;-69
2024/01/22 09:09:25;;;;;;;;;;;4.20;99.90;;;;;;5026542;28;19980;-69
2024/01/22 09:11:52;;;;;;;;;;;4.30;99.90;;;;;;5029259;28;19984;-69
2024/01/22 09:14:18;;;;;;;;;;;4.30;99.90;;;;;;5027339;28;19992;-69
2024/01/22 09:16:46;;;;;;;;;;;4.30;99.90;;;;;;5027552;28;19988;-71
2024/01/22 09:19:13;;;;;;;;;;;4.20;99.90;;;;;;5027086;28;19956;-69
2024/01/22 09:21:40;;;;;;;;;;;4.20;99.90;;;;;;5026438;28;19996;-70
2024/01/22 09:24:06;;;;;;;;;;;4.20;99.90;;;;;;5023716;28;19929;-70
2024/01/22 09:26:33;;;;;;;;;;;4.20;99.90;;;;;;5022064;28;19981;-69
2024/01/22 09:28:59;;;;;;;;;;;4.20;99.90;;;;;;5024589;28;19936;-69
2024/01/22 09:31:26;;;;;;;;;;;4.10;99.90;;;;;;5023521;28;19984;-69
2024/01/22 09:33:54;;;;;;;;;;;4.10;99.90;;;;;;5021926;28;19956;-69
2024/01/22 09:36:21;;;;;;;;;;;4.10;99.90;;;;;;5023262;28;20169;-69
2024/01/22 09:38:47;;;;;;;;;;;4.10;99.90;;;;;;5023694;28;19996;-69
2024/01/22 09:41:14;;;;;;;;;;;4.20;99.90;;;;;;5028320;28;19928;-69
2024/01/22 09:43:41;;;;;;;;;;;4.20;99.90;;;;;;5027035;28;20249;-69
2024/01/22 09:46:08;;;;;;;;;;;4.30;99.90;;;;;;5020462;28;19928;-70
2024/01/22 09:48:35;;;;;;;;;;;4.20;99.90;;;;;;5030416;28;19965;-69
2024/01/22 09:51:05;;;;;;;;;;;4.20;99.90;;;;;;5023709;28;19944;-69
2024/01/22 09:53:34;;;;;;;;;;;4.20;99.90;;;;;;5027631;28;19928;-69
2024/01/22 09:56:01;;;;;;;;;;;4.30;99.90;;;;;;5026149;28;20172;-69
2024/01/22 09:58:31;;;;;;;;;;;4.30;99.90;;;;;;5027855;28;19960;-71
2024/01/22 10:00:58;;;;;;;;;;;4.30;99.90;;;;;;5027250;28;19929;-69
2024/01/22 10:03:26;;;;;;;;;;;4.30;99.90;;;;;;5027808;28;19980;-69
2024/01/22 10:05:54;;;;;;;;;;;4.30;99.90;;;;;;5029524;28;19922;-70
2024/01/22 10:08:22;;;;;;;;;;;4.30;99.90;;;;;;5024465;28;20215;-70
2024/01/22 10:10:48;;;;;;;;;;;4.40;99.90;;;;;;5026514;28;19956;-70
2024/01/22 10:13:17;;;;;;;;;;;4.40;99.90;;;;;;5026193;28;19988;-71
2024/01/22 10:15:43;;;;;;;;;;;4.50;99.90;;;;;;5025963;28;19984;-72
2024/01/22 10:18:11;;;;;;;;;;;4.50;99.90;;;;;;5022279;28;19948;-70
2024/01/22 10:20:38;;;;;;;;;;;4.50;99.90;;;;;;5030711;28;19925;-71
2024/01/22 10:23:05;;;;;;;;;;;4.60;99.90;;;;;;5030591;28;19964;-69
2024/01/22 10:25:33;;;;;;;;;;;4.70;99.90;;;;;;5028771;28;20238;-71
2024/01/22 10:28:09;;;;;;;;;;;4.70;99.90;;;;;;5026460;28;19953;-70
2024/01/22 10:30:37;;;;;;;;;;;4.80;99.90;;;;;;5026801;28;19949;-71
2024/01/22 10:33:11;;;;;;;;;;;4.80;99.90;;;;;;5026090;28;20281;-70
2024/01/22 10:35:38;;;;;;;;;;;4.90;99.90;;;;;;5025951;28;19949;-69
2024/01/22 10:38:08;;;;;;;;;;;4.90;99.90;;;;;;5025635;28;20165;-69
2024/01/22 10:40:36;;;;;;;;;;;4.90;99.90;;;;;;5025113;28;20164;-70
2024/01/22 10:43:19;;;;;;;;;;;5.00;99.90;;;;;;5030140;28;19992;-70
2024/01/22 10:45:46;;;;;;;;;;;5.00;99.90;;;;;;5026111;28;19921;-69
2024/01/22 10:48:13;;;;;;;;;;;5.00;99.90;;;;;;5032511;28;19989;-69
2024/01/22 10:50:42;;;;;;;;;;;5.10;99.90;;;;;;5025924;28;19959;-70
2024/01/22 10:53:09;;;;;;;;;;;5.10;99.90;;;;;;5026552;28;20246;-69
2024/01/22 10:55:38;;;;;;;;;;;5.10;99.90;;;;;;5029705;28;19928;-69
2024/01/22 10:58:08;;;;;;;;;;;5.10;99.90;;;;;;5032996;28;19921;-69
2024/01/22 11:00:40;;;;;;;;;;;5.10;99.90;;;;;;5032438;28;19979;-70
2024/01/22 11:03:10;;;;;;;;;;;5.20;99.90;;;;;;5029831;28;19921;-69
2024/01/22 11:05:40;;;;;;;;;;;5.20;99.90;;;;;;5032060;28;19921;-70
2024/01/22 11:08:09;;;;;;;;;;;5.20;99.90;;;;;;5030136;28;20169;-69
2024/01/22 11:10:38;;;;;;;;;;;5.20;99.90;;;;;;5030251;28;19949;-71
2024/01/22 11:13:05;;;;;;;;;;;5.20;99.90;;;;;;5032908;28;19993;-69
2024/01/22 11:15:31;;;;;;;;;;;5.10;99.90;;;;;;5031444;28;19961;-69
2024/01/22 11:17:58;;;;;;;;;;;5.00;99.90;;;;;;5030855;28;19948;-69
2024/01/22 11:20:25;;;;;;;;;;;4.90;99.90;;;;;;5030413;28;19949;-69
2024/01/22 11:22:58;;;;;;;;;;;4.80;99.90;;;;;;5034539;28;20265;-69
2024/01/22 11:25:25;;;;;;;;;;;4.80;99.90;;;;;;5029575;28;19921;-69
2024/01/22 11:28:00;;;;;;;;;;;4.70;99.90;;;;;;5025684;28;19980;-69
2024/01/22 11:30:32;;;;;;;;;;;4.70;99.90;;;;;;5026210;28;19952;-69
2024/01/22 11:32:58;;;;;;;;;;;4.70;99.90;;;;;;5023493;28;19953;-69
2024/01/22 11:35:35;;;;;;;;;;;4.70;99.90;;;;;;5025534;28;19992;-69
2024/01/22 11:38:02;;;;;;;;;;;4.70;99.90;;;;;;5024322;28;20261;-68
2024/01/22 11:40:47;;;;;;;;;;;4.60;99.90;;;;;;5026049;28;20024;-69
2024/01/22 11:43:15;;;;;;;;;;;4.60;99.90;;;;;;5026958;28;19959;-72
2024/01/22 11:45:42;;;;;;;;;;;4.60;99.90;;;;;;5025150;28;19929;-69
2024/01/22 11:48:15;;;;;;;;;;;4.60;99.90;;;;;;5022497;28;19922;-71
2024/01/22 11:50:43;;;;;;;;;;;4.60;99.90;;;;;;5024940;28;20290;-69
2024/01/22 11:53:10;;;;;;;;;;;4.60;99.90;;;;;;5029027;28;19988;-69
2024/01/22 11:55:37;;;;;;;;;;;4.60;99.90;;;;;;5025931;28;19927;-70
2024/01/22 11:58:08;;;;;;;;;;;4.50;99.90;;;;;;5031767;28;20270;-70
2024/01/22 12:00:36;;;;;;;;;;;4.50;99.90;;;;;;5030902;28;20245;-69
2024/01/22 12:03:03;;;;;;;;;;;4.50;99.90;;;;;;5029013;28;19992;-69
2024/01/22 12:05:30;;;;;;;;;;;4.50;99.90;;;;;;5029049;28;19985;-70
2024/01/22 12:07:56;;;;;;;;;;;4.50;99.90;;;;;;5027598;28;19964;-69
2024/01/22 12:10:24;;;;;;;;;;;4.50;99.90;;;;;;5026066;28;19989;-69
2024/01/22 12:12:52;;;;;;;;;;;4.50;99.90;;;;;;5026194;28;19921;-71
2024/01/22 12:15:18;;;;;;;;;;;4.50;99.90;;;;;;5028502;28;19960;-68
2024/01/22 12:17:46;;;;;;;;;;;4.50;99.90;;;;;;5031152;28;19960;-69
2024/01/22 12:20:13;;;;;;;;;;;4.60;99.90;;;;;;5023814;28;19952;-71
2024/01/22 12:22:40;;;;;;;;;;;4.60;99.90;;;;;;5027058;28;19948;-69
2024/01/22 12:25:07;;;;;;;;;;;4.70;99.90;;;;;;5027003;28;19943;-69
2024/01/22 12:27:35;;;;;;;;;;;4.70;99.90;;;;;;5023417;28;19940;-69
2024/01/22 12:30:03;;;;;;;;;;;4.80;99.90;;;;;;5023359;28;19928;-69
2024/01/22 12:32:29;;;;;;;;;;;4.80;99.90;;;;;;5024721;28;19924;-69
2024/01/22 12:34:58;;;;;;;;;;;4.80;99.90;;;;;;5024602;28;20163;-69
2024/01/22 12:37:25;;;;;;;;;;;4.80;99.90;;;;;;5025658;28;19921;-70
2024/01/22 12:40:04;;;;;;;;;;;4.90;99.90;;;;;;5030634;28;19928;-69
2024/01/22 12:42:31;;;;;;;;;;;4.90;99.90;;;;;;5029105;28;19952;-70
2024/01/22 12:44:58;;;;;;;;;;;4.90;99.90;;;;;;5026774;28;19921;-69
2024/01/22 12:47:25;;;;;;;;;;;4.90;99.90;;;;;;5025542;28;20162;-69
2024/01/22 12:49:52;;;;;;;;;;;4.90;99.90;;;;;;5027653;28;19960;-69
2024/01/22 12:52:21;;;;;;;;;;;5.00;99.90;;;;;;5032005;28;19967;-69
2024/01/22 12:54:47;;;;;;;;;;;5.00;99.90;;;;;;5028073;28;20155;-68
2024/01/22 12:57:14;;;;;;;;;;;5.10;99.90;;;;;;5023838;28;19928;-69
2024/01/22 12:59:41;;;;;;;;;;;5.10;99.90;;;;;;5022959;28;20231;-69
2024/01/22 13:02:07;;;;;;;;;;;5.10;99.90;;;;;;5023808;28;20000;-68
2024/01/22 13:04:34;;;;;;;;;;;5.20;99.90;;;;;;5029530;28;20024;-70
2024/01/22 13:07:01;;;;;;;;;;;5.30;99.90;;;;;;5029106;28;19921;-68
2024/01/22 13:09:29;;;;;;;;;;;5.30;99.90;;;;;;5028637;28;20014;-68
2024/01/22 13:11:55;;;;;;;;;;;5.30;99.90;;;;;;5027379;28;19984;-69
2024/01/22 13:14:22;;;;;;;;;;;5.30;99.90;;;;;;5031448;28;19989;-71
2024/01/22 13:16:48;;;;;;;;;;;5.40;99.90;;;;;;5026892;28;19964;-69
2024/01/22 13:19:15;;;;;;;;;;;5.40;99.90;;;;;;5028134;28;20091;-74
2024/01/22 13:21:42;;;;;;;;;;;5.40;99.90;;;;;;5027993;28;20287;-68
2024/01/22 13:24:08;;;;;;;;;;;5.50;99.90;;;;;;5031114;28;19980;-69
2024/01/22 13:26:37;;;;;;;;;;;5.50;99.90;;;;;;5027868;28;19979;-70
2024/01/22 13:29:03;;;;;;;;;;;5.60;99.90;;;;;;5022663;28;20229;-69
2024/01/22 13:31:30;;;;;;;;;;;5.50;99.90;;;;;;5023707;28;19922;-68
2024/01/22 13:33:57;;;;;;;;;;;5.60;99.90;;;;;;5027643;28;19922;-69
2024/01/22 13:36:24;;;;;;;;;;;5.60;99.90;;;;;;5028514;28;19921;-69
2024/01/22 13:38:50;;;;;;;;;;;5.60;99.90;;;;;;5030503;28;19984;-70
2024/01/22 13:41:17;;;;;;;;;;;5.60;99.90;;;;;;5027453;28;19928;-70
2024/01/22 13:43:46;;;;;;;;;;;5.70;99.90;;;;;;5030859;28;19925;-70
2024/01/22 13:46:13;;;;;;;;;;;5.60;99.90;;;;;;5027574;28;19956;-70
2024/01/22 13:48:41;;;;;;;;;;;5.70;99.90;;;;;;5019388;28;19963;-71
2024/01/22 13:51:08;;;;;;;;;;;5.60;99.90;;;;;;5027843;28;19925;-69
2024/01/22 13:53:35;;;;;;;;;;;5.60;99.90;;;;;;5028281;28;19967;-71
2024/01/22 13:56:02;;;;;;;;;;;5.60;99.90;;;;;;5031296;28;19921;-70
2024/01/22 13:58:29;;;;;;;;;;;5.60;99.90;;;;;;5033060;28;19929;-70
2024/01/22 14:00:57;;;;;;;;;;;5.70;99.90;;;;;;5033575;28;19992;-69
2024/01/22 14:03:24;;;;;;;;;;;5.70;99.90;;;;;;5031746;28;20253;-70
2024/01/22 14:05:50;;;;;;;;;;;5.80;99.90;;;;;;5026018;28;20048;-70
2024/01/22 14:08:17;;;;;;;;;;;5.90;99.90;;;;;;5026290;28;19984;-70
2024/01/22 14:10:44;;;;;;;;;;;5.90;99.90;;;;;;5031517;28;20159;-70
2024/01/22 14:13:10;;;;;;;;;;;5.90;99.90;;;;;;5031274;28;19957;-70
2024/01/22 14:15:37;;;;;;;;;;;5.90;99.90;;;;;;5029897;28;19928;-70
2024/01/22 14:18:05;;;;;;;;;;;5.90;99.90;;;;;;5031966;28;19956;-70
2024/01/22 14:20:32;;;;;;;;;;;6.00;99.90;;;;;;5033437;28;19989;-70
2024/01/22 14:22:58;;;;;;;;;;;6.00;99.90;;;;;;5035112;28;20167;-72
2024/01/22 14:25:25;;;;;;;;;;;6.10;99.90;;;;;;5030260;28;19921;-70